createdAt,value
2019-03-02T00:00:11.736Z,98
2019-03-02T00:01:15.197Z,97
2019-03-02T00:02:17.299Z,98
2019-03-02T00:03:27.076Z,98
2019-03-02T00:04:29.210Z,98
2019-03-02T00:05:32.055Z,98
2019-03-02T00:06:37.328Z,98
2019-03-02T00:07:39.453Z,98
2019-03-02T00:08:41.861Z,98
2019-03-02T00:09:43.963Z,99
2019-03-02T00:10:46.999Z,99
2019-03-02T00:11:49.110Z,99
2019-03-02T00:12:55.428Z,99
2019-03-02T00:13:57.835Z,99
2019-03-02T00:14:59.934Z,99
2019-03-02T00:16:09.095Z,99
2019-03-02T00:17:11.228Z,99
2019-03-02T00:18:13.366Z,99
2019-03-02T00:19:15.456Z,99
2019-03-02T00:20:19.985Z,99
2019-03-02T00:21:22.395Z,100
2019-03-02T00:22:24.505Z,99
2019-03-02T00:23:27.342Z,99
2019-03-02T00:24:29.781Z,100
2019-03-02T00:25:36.020Z,100
2019-03-02T00:26:38.148Z,100
2019-03-02T00:27:40.260Z,100
2019-03-02T00:28:42.378Z,100
2019-03-02T00:29:47.500Z,100
2019-03-02T00:30:49.602Z,100
2019-03-02T00:31:51.710Z,100
2019-03-02T00:32:53.823Z,100
2019-03-02T00:33:58.226Z,100
2019-03-02T00:35:00.368Z,100
2019-03-02T00:36:09.026Z,100
2019-03-02T00:37:11.135Z,100
2019-03-02T00:38:13.537Z,100
2019-03-02T00:39:20.414Z,100
2019-03-02T00:40:22.816Z,100
2019-03-02T00:41:24.934Z,100
2019-03-02T00:42:27.626Z,100
2019-03-02T00:43:29.765Z,100
2019-03-02T00:44:31.853Z,100
2019-03-02T00:45:33.987Z,100
2019-03-02T00:46:36.405Z,100
2019-03-02T00:47:38.505Z,100
2019-03-02T00:48:46.900Z,100
2019-03-02T00:49:49.558Z,100
2019-03-02T00:50:51.681Z,100
2019-03-02T00:51:53.791Z,100
2019-03-02T00:53:00.582Z,100
2019-03-02T00:54:02.721Z,100
2019-03-02T00:55:05.442Z,100
2019-03-02T00:56:09.818Z,100
2019-03-02T00:57:20.124Z,100
2019-03-02T00:58:22.260Z,100
2019-03-02T00:59:31.148Z,100
2019-03-02T01:00:33.530Z,100
2019-03-02T01:01:36.024Z,100
2019-03-02T01:02:41.195Z,100
2019-03-02T01:03:43.697Z,100
2019-03-02T01:04:45.803Z,100
2019-03-02T01:05:47.946Z,100
2019-03-02T01:06:50.941Z,100
2019-03-02T01:08:01.182Z,100
2019-03-02T01:09:03.586Z,100
2019-03-02T01:10:05.714Z,100
2019-03-02T01:11:07.850Z,100
2019-03-02T01:12:10.987Z,100
2019-03-02T01:13:13.102Z,100
2019-03-02T01:14:18.889Z,100
2019-03-02T01:15:21.291Z,100
2019-03-02T01:16:23.411Z,100
2019-03-02T01:17:32.307Z,100
2019-03-02T01:18:34.697Z,100
2019-03-02T01:19:36.822Z,100
2019-03-02T01:20:38.925Z,100
2019-03-02T01:21:43.257Z,100
2019-03-02T01:22:52.772Z,100
2019-03-02T01:23:54.942Z,100
2019-03-02T01:24:57.052Z,100
2019-03-02T01:25:59.161Z,100
2019-03-02T01:27:01.528Z,100
2019-03-02T01:28:10.660Z,100
2019-03-02T01:29:20.383Z,100
2019-03-02T01:30:22.583Z,100
2019-03-02T01:31:25.071Z,100
2019-03-02T01:32:27.191Z,100
2019-03-02T01:33:30.230Z,100
2019-03-02T01:34:32.340Z,100
2019-03-02T01:35:34.451Z,100
2019-03-02T01:36:36.580Z,100
2019-03-02T01:37:45.798Z,100
2019-03-02T01:38:54.929Z,100
2019-03-02T01:39:57.087Z,100
2019-03-02T01:41:03.099Z,100
2019-03-02T01:42:05.208Z,100
2019-03-02T01:43:07.609Z,100
2019-03-02T01:44:17.508Z,100
2019-03-02T01:45:19.977Z,100
2019-03-02T01:46:25.848Z,100
2019-03-02T01:47:27.948Z,100
2019-03-02T01:48:30.081Z,100
2019-03-02T01:49:38.189Z,100
2019-03-02T01:50:40.298Z,100
2019-03-02T01:51:50.935Z,100
2019-03-02T01:52:59.607Z,100
2019-03-02T01:54:02.377Z,100
2019-03-02T01:55:04.493Z,100
2019-03-02T01:56:07.783Z,100
2019-03-02T01:57:09.908Z,100
2019-03-02T01:58:15.586Z,100
2019-03-02T01:59:17.994Z,100
2019-03-02T02:00:20.133Z,100
2019-03-02T02:01:26.562Z,100
2019-03-02T02:02:28.701Z,100
2019-03-02T02:03:30.817Z,100
2019-03-02T02:04:32.942Z,100
2019-03-02T02:05:35.067Z,100
2019-03-02T02:06:43.902Z,100
2019-03-02T02:07:46.028Z,100
2019-03-02T02:08:48.454Z,100
2019-03-02T02:09:50.566Z,100
2019-03-02T02:10:52.941Z,100
2019-03-02T02:11:55.420Z,100
2019-03-02T02:12:57.565Z,100
2019-03-02T02:13:59.957Z,100
2019-03-02T02:15:02.493Z,100
2019-03-02T02:16:07.510Z,100
2019-03-02T02:17:09.617Z,100
2019-03-02T02:18:11.791Z,100
2019-03-02T02:19:14.175Z,100
2019-03-02T02:20:16.398Z,100
2019-03-02T02:21:18.509Z,100
2019-03-02T02:22:20.638Z,100
2019-03-02T02:23:22.748Z,100
2019-03-02T02:24:26.874Z,100
2019-03-02T02:25:28.978Z,100
2019-03-02T02:26:37.365Z,100
2019-03-02T02:27:39.477Z,100
2019-03-02T02:28:41.589Z,100
2019-03-02T02:29:45.096Z,100
2019-03-02T02:30:47.496Z,100
2019-03-02T02:31:49.627Z,100
2019-03-02T02:32:52.367Z,100
2019-03-02T02:33:55.177Z,100
2019-03-02T02:35:03.551Z,100
2019-03-02T02:36:06.285Z,100
2019-03-02T02:37:09.107Z,100
2019-03-02T02:38:18.292Z,100
2019-03-02T02:39:20.752Z,100
2019-03-02T02:40:23.466Z,100
2019-03-02T02:41:26.070Z,100
2019-03-02T02:42:28.603Z,100
2019-03-02T02:43:30.735Z,100
2019-03-02T02:44:40.086Z,100
2019-03-02T02:45:42.523Z,100
2019-03-02T02:46:45.026Z,100
2019-03-02T02:47:55.671Z,100
2019-03-02T02:48:58.104Z,100
2019-03-02T02:50:00.958Z,100
2019-03-02T02:51:13.012Z,100
2019-03-02T02:52:16.136Z,100
2019-03-02T02:53:18.577Z,100
2019-03-02T02:54:26.074Z,100
2019-03-02T02:55:29.284Z,100
2019-03-02T02:56:31.677Z,100
2019-03-02T02:57:40.511Z,100
2019-03-02T02:58:43.219Z,100
2019-03-02T02:59:45.751Z,100
2019-03-02T03:00:57.449Z,100
2019-03-02T03:02:00.686Z,100
2019-03-02T03:03:03.100Z,100
2019-03-02T03:04:06.472Z,100
2019-03-02T03:05:17.939Z,100
2019-03-02T03:06:20.050Z,100
2019-03-02T03:07:22.951Z,100
2019-03-02T03:08:33.597Z,100
2019-03-02T03:09:35.752Z,100
2019-03-02T03:10:38.533Z,100
2019-03-02T03:11:46.461Z,100
2019-03-02T03:12:48.581Z,100
2019-03-02T03:13:51.014Z,100
2019-03-02T03:15:00.638Z,100
2019-03-02T03:16:03.060Z,100
2019-03-02T03:17:05.482Z,100
2019-03-02T03:18:15.817Z,100
2019-03-02T03:19:18.345Z,100
2019-03-02T03:20:20.759Z,100
2019-03-02T03:21:30.156Z,100
2019-03-02T03:22:32.278Z,100
2019-03-02T03:23:34.701Z,100
2019-03-02T03:24:42.511Z,100
2019-03-02T03:25:45.033Z,100
2019-03-02T03:26:48.027Z,100
2019-03-02T03:27:54.361Z,100
2019-03-02T03:28:56.477Z,100
2019-03-02T03:29:58.610Z,100
2019-03-02T03:31:01.350Z,100
2019-03-02T03:32:13.673Z,100
2019-03-02T03:33:16.241Z,100
2019-03-02T03:34:33.179Z,100
2019-03-02T03:35:36.561Z,100
2019-03-02T03:36:39.323Z,100
2019-03-02T03:37:42.003Z,100
2019-03-02T03:38:52.913Z,100
2019-03-02T03:39:55.425Z,100
2019-03-02T03:41:07.342Z,100
2019-03-02T03:42:09.470Z,100
2019-03-02T03:43:12.277Z,100
2019-03-02T03:44:28.675Z,100
2019-03-02T03:45:30.903Z,100
2019-03-02T03:46:33.342Z,100
2019-03-02T03:47:41.167Z,100
2019-03-02T03:48:43.272Z,100
2019-03-02T03:49:46.067Z,100
2019-03-02T03:50:54.433Z,100
2019-03-02T03:51:56.941Z,100
2019-03-02T03:52:59.368Z,100
2019-03-02T03:54:10.089Z,100
2019-03-02T03:55:12.210Z,100
2019-03-02T03:56:14.654Z,100
2019-03-02T03:57:23.325Z,100
2019-03-02T03:58:25.741Z,100
2019-03-02T03:59:28.167Z,100
2019-03-02T04:00:41.325Z,100
2019-03-02T04:01:43.832Z,100
2019-03-02T04:02:46.294Z,100
2019-03-02T04:03:54.167Z,100
2019-03-02T04:04:56.576Z,100
2019-03-02T04:05:59.016Z,100
2019-03-02T04:07:08.737Z,100
2019-03-02T04:08:11.440Z,100
2019-03-02T04:09:13.846Z,100
2019-03-02T04:10:28.240Z,100
2019-03-02T04:11:30.668Z,100
2019-03-02T04:12:32.836Z,100
2019-03-02T04:13:47.510Z,100
2019-03-02T04:14:49.635Z,100
2019-03-02T04:15:51.772Z,100
2019-03-02T04:17:02.268Z,100
2019-03-02T04:18:05.390Z,100
2019-03-02T04:19:07.885Z,100
2019-03-02T04:20:14.866Z,100
2019-03-02T04:21:17.382Z,100
2019-03-02T04:22:19.816Z,100
2019-03-02T04:23:24.387Z,100
2019-03-02T04:24:26.525Z,100
2019-03-02T04:25:28.952Z,100
2019-03-02T04:26:39.901Z,100
2019-03-02T04:27:42.030Z,100
2019-03-02T04:28:44.567Z,100
2019-03-02T04:29:56.355Z,100
2019-03-02T04:30:59.192Z,100
2019-03-02T04:32:01.323Z,100
2019-03-02T04:33:08.363Z,100
2019-03-02T04:34:10.795Z,100
2019-03-02T04:35:13.350Z,100
2019-03-02T04:36:15.487Z,100
2019-03-02T04:37:26.136Z,100
2019-03-02T04:38:28.562Z,100
2019-03-02T04:39:30.667Z,100
2019-03-02T04:40:33.084Z,100
2019-03-02T04:41:41.210Z,100
2019-03-02T04:42:46.392Z,100
2019-03-02T04:43:55.485Z,100
2019-03-02T04:44:57.904Z,100
2019-03-02T04:46:03.595Z,100
2019-03-02T04:47:05.710Z,100
2019-03-02T04:48:07.845Z,100
2019-03-02T04:49:15.971Z,100
2019-03-02T04:50:18.106Z,100
2019-03-02T04:51:20.617Z,100
2019-03-02T04:52:22.740Z,100
2019-03-02T04:53:26.596Z,100
2019-03-02T04:54:29.406Z,100
2019-03-02T04:55:31.524Z,100
2019-03-02T04:56:33.634Z,100
2019-03-02T04:57:38.365Z,100
2019-03-02T04:58:43.582Z,100
2019-03-02T04:59:49.587Z,100
2019-03-02T05:00:51.694Z,100
2019-03-02T05:01:53.822Z,100
2019-03-02T05:02:56.948Z,100
2019-03-02T05:03:59.057Z,100
2019-03-02T05:05:01.231Z,100
2019-03-02T05:06:10.169Z,100
2019-03-02T05:07:12.266Z,100
2019-03-02T05:08:14.375Z,100
2019-03-02T05:09:18.650Z,100
2019-03-02T05:10:20.746Z,100
2019-03-02T05:11:26.574Z,100
2019-03-02T05:12:28.695Z,100
2019-03-02T05:13:31.181Z,100
2019-03-02T05:14:36.666Z,100
2019-03-02T05:15:42.848Z,100
2019-03-02T05:16:45.359Z,100
2019-03-02T05:17:47.489Z,100
2019-03-02T05:18:55.216Z,100
2019-03-02T05:20:00.737Z,100
2019-03-02T05:21:07.834Z,100
2019-03-02T05:22:10.258Z,100
2019-03-02T05:23:12.348Z,100
2019-03-02T05:24:14.474Z,100
2019-03-02T05:25:20.880Z,100
2019-03-02T05:26:23.833Z,100
2019-03-02T05:27:31.923Z,100
2019-03-02T05:28:34.943Z,100
2019-03-02T05:29:37.454Z,100
2019-03-02T05:30:39.564Z,100
2019-03-02T05:31:42.884Z,100
2019-03-02T05:32:53.312Z,100
2019-03-02T05:33:55.431Z,100
2019-03-02T05:34:57.940Z,100
2019-03-02T05:36:00.058Z,100
2019-03-02T05:37:04.605Z,100
2019-03-02T05:38:07.312Z,100
2019-03-02T05:39:09.704Z,100
2019-03-02T05:40:11.819Z,100
2019-03-02T05:41:14.255Z,100
2019-03-02T05:42:16.367Z,100
2019-03-02T05:43:18.465Z,100
2019-03-02T05:44:20.607Z,100
2019-03-02T05:45:25.484Z,100
2019-03-02T05:46:27.750Z,100
2019-03-02T05:47:30.461Z,100
2019-03-02T05:48:32.591Z,100
2019-03-02T05:49:34.766Z,100
2019-03-02T05:50:36.883Z,100
2019-03-02T05:51:44.746Z,100
2019-03-02T05:52:50.675Z,100
2019-03-02T05:53:57.045Z,100
2019-03-02T05:54:59.161Z,100
2019-03-02T05:56:01.268Z,100
2019-03-02T05:57:06.185Z,100
2019-03-02T05:58:08.295Z,100
2019-03-02T05:59:10.688Z,100
2019-03-02T06:00:12.797Z,100
2019-03-02T06:01:15.210Z,100
2019-03-02T06:02:18.925Z,100
2019-03-02T06:03:21.041Z,100
2019-03-02T06:04:24.317Z,100
2019-03-02T06:05:27.122Z,100
2019-03-02T06:06:29.251Z,100
2019-03-02T06:07:32.162Z,100
2019-03-02T06:08:37.022Z,100
2019-03-02T06:09:39.132Z,100
2019-03-02T06:10:41.542Z,100
2019-03-02T06:11:43.656Z,100
2019-03-02T06:12:53.479Z,100
2019-03-02T06:13:55.599Z,100
2019-03-02T06:14:57.989Z,100
2019-03-02T06:16:00.106Z,100
2019-03-02T06:17:02.597Z,100
2019-03-02T06:18:09.246Z,100
2019-03-02T06:19:11.647Z,100
2019-03-02T06:20:13.800Z,100
2019-03-02T06:21:15.952Z,100
2019-03-02T06:22:22.752Z,100
2019-03-02T06:23:31.165Z,100
2019-03-02T06:24:33.281Z,100
2019-03-02T06:25:35.782Z,100
2019-03-02T06:26:37.880Z,100
2019-03-02T06:27:49.103Z,100
2019-03-02T06:28:51.262Z,100
2019-03-02T06:29:59.629Z,100
2019-03-02T06:31:02.009Z,100
2019-03-02T06:32:04.505Z,100
2019-03-02T06:33:10.145Z,100
2019-03-02T06:34:12.262Z,100
2019-03-02T06:35:14.400Z,100
2019-03-02T06:36:16.883Z,100
2019-03-02T06:37:21.524Z,100
2019-03-02T06:38:23.657Z,100
2019-03-02T06:39:25.765Z,100
2019-03-02T06:40:27.898Z,100
2019-03-02T06:41:34.647Z,100
2019-03-02T06:42:36.754Z,100
2019-03-02T06:43:38.866Z,100
2019-03-02T06:44:40.985Z,100
2019-03-02T06:45:45.051Z,100
2019-03-02T06:46:47.462Z,100
2019-03-02T06:47:49.860Z,100
2019-03-02T06:48:51.975Z,100
2019-03-02T06:50:00.988Z,100
2019-03-02T06:51:03.591Z,100
2019-03-02T06:52:05.702Z,100
2019-03-02T06:53:08.554Z,100
2019-03-02T06:54:14.859Z,100
2019-03-02T06:55:17.308Z,100
2019-03-02T06:56:26.262Z,100
2019-03-02T06:57:28.383Z,100
2019-03-02T06:58:30.503Z,100
2019-03-02T06:59:39.291Z,100
2019-03-02T07:00:42.023Z,100
2019-03-02T07:01:47.690Z,100
2019-03-02T07:02:49.812Z,100
2019-03-02T07:03:51.946Z,100
2019-03-02T07:04:59.431Z,100
2019-03-02T07:06:01.850Z,100
2019-03-02T07:07:05.548Z,100
2019-03-02T07:08:08.268Z,100
2019-03-02T07:09:11.486Z,100
2019-03-02T07:10:13.892Z,100
2019-03-02T07:11:19.946Z,100
2019-03-02T07:12:22.060Z,100
2019-03-02T07:13:24.210Z,100
2019-03-02T07:14:33.696Z,100
2019-03-02T07:15:35.810Z,100
2019-03-02T07:16:38.211Z,100
2019-03-02T07:17:40.341Z,100
2019-03-02T07:18:43.820Z,100
2019-03-02T07:19:53.198Z,100
2019-03-02T07:20:55.372Z,100
2019-03-02T07:21:58.591Z,100
2019-03-02T07:23:00.710Z,100
2019-03-02T07:24:02.830Z,100
2019-03-02T07:25:07.147Z,100
2019-03-02T07:26:09.255Z,100
2019-03-02T07:27:11.376Z,100
2019-03-02T07:28:14.187Z,100
2019-03-02T07:29:19.411Z,100
2019-03-02T07:30:21.548Z,100
2019-03-02T07:31:24.223Z,100
2019-03-02T07:32:26.338Z,100
2019-03-02T07:33:28.467Z,100
2019-03-02T07:34:30.580Z,100
2019-03-02T07:35:32.712Z,100
2019-03-02T07:36:35.731Z,100
2019-03-02T07:37:45.734Z,100
2019-03-02T07:38:47.860Z,100
2019-03-02T07:39:49.966Z,100
2019-03-02T07:40:52.378Z,100
2019-03-02T07:41:59.291Z,100
2019-03-02T07:43:01.427Z,100
2019-03-02T07:44:03.530Z,100
2019-03-02T07:45:05.656Z,100
2019-03-02T07:46:13.202Z,100
2019-03-02T07:47:15.703Z,100
2019-03-02T07:48:17.833Z,100
2019-03-02T07:49:20.230Z,100
2019-03-02T07:50:30.090Z,100
2019-03-02T07:51:32.216Z,100
2019-03-02T07:52:34.339Z,99
2019-03-02T07:53:36.442Z,99
2019-03-02T07:54:43.967Z,99
2019-03-02T07:55:46.081Z,99
2019-03-02T07:56:48.463Z,99
2019-03-02T07:57:50.888Z,99
2019-03-02T07:58:56.473Z,100
2019-03-02T08:00:02.053Z,100
2019-03-02T08:01:08.360Z,100
2019-03-02T08:02:11.816Z,99
2019-03-02T08:03:14.204Z,99
2019-03-02T08:04:17.676Z,99
2019-03-02T08:05:20.470Z,98
2019-03-02T08:06:27.564Z,98
2019-03-02T08:07:29.668Z,98
2019-03-02T08:08:31.802Z,98
2019-03-02T08:09:33.901Z,98
2019-03-02T08:10:40.536Z,98
2019-03-02T08:11:49.897Z,98
2019-03-02T08:12:52.091Z,98
2019-03-02T08:13:54.208Z,98
2019-03-02T08:14:56.317Z,98
2019-03-02T08:16:03.976Z,98
2019-03-02T08:17:06.082Z,98
2019-03-02T08:18:15.264Z,98
2019-03-02T08:19:17.391Z,98
2019-03-02T08:20:26.658Z,98
2019-03-02T08:21:29.072Z,98
2019-03-02T08:22:38.519Z,98
2019-03-02T08:23:40.631Z,98
2019-03-02T08:24:45.427Z,98
2019-03-02T08:25:47.838Z,98
2019-03-02T08:26:49.952Z,98
2019-03-02T08:27:52.583Z,97
2019-03-02T08:28:54.696Z,97
2019-03-02T08:29:58.761Z,97
2019-03-02T08:31:00.925Z,96
2019-03-02T08:32:03.058Z,96
2019-03-02T08:33:05.555Z,96
2019-03-02T08:34:11.688Z,96
2019-03-02T08:35:13.803Z,96
2019-03-02T08:36:18.971Z,96
2019-03-02T08:37:21.107Z,96
2019-03-02T08:38:23.205Z,96
2019-03-02T08:39:25.345Z,96
2019-03-02T08:40:27.496Z,96
2019-03-02T08:41:36.609Z,95
2019-03-02T08:42:39.871Z,96
2019-03-02T08:43:42.000Z,96
2019-03-02T08:44:44.116Z,95
2019-03-02T08:45:46.223Z,95
2019-03-02T08:46:48.356Z,95
2019-03-02T08:47:50.466Z,95
2019-03-02T08:48:52.588Z,95
2019-03-02T08:49:54.696Z,95
2019-03-02T08:50:56.827Z,95
2019-03-02T08:51:58.930Z,95
2019-03-02T08:53:01.051Z,94
2019-03-02T08:54:03.828Z,93
2019-03-02T08:55:05.962Z,94
2019-03-02T08:56:13.184Z,94
2019-03-02T08:57:15.579Z,93
2019-03-02T08:58:17.699Z,93
2019-03-02T08:59:19.822Z,92
2019-03-02T09:00:21.945Z,93
2019-03-02T09:01:24.069Z,93
2019-03-02T09:02:26.181Z,93
2019-03-02T09:03:37.145Z,92
2019-03-02T09:04:40.160Z,91
2019-03-02T09:05:52.913Z,91
2019-03-02T09:06:57.220Z,91
2019-03-02T09:07:59.344Z,90
2019-03-02T09:09:01.465Z,91
2019-03-02T09:10:03.576Z,91
2019-03-02T09:11:06.100Z,90
2019-03-02T09:12:08.492Z,90
2019-03-02T09:13:10.998Z,90
2019-03-02T09:14:14.255Z,91
2019-03-02T09:15:16.394Z,90
2019-03-02T09:16:18.487Z,90
2019-03-02T09:17:20.610Z,90
2019-03-02T09:18:22.723Z,89
2019-03-02T09:19:25.799Z,89
2019-03-02T09:20:28.224Z,90
2019-03-02T09:21:36.979Z,90
2019-03-02T09:22:41.518Z,90
2019-03-02T09:23:44.030Z,89
2019-03-02T09:24:50.440Z,90
2019-03-02T09:25:52.828Z,90
2019-03-02T09:26:54.952Z,90
2019-03-02T09:27:57.097Z,89
2019-03-02T09:28:59.205Z,90
2019-03-02T09:30:01.355Z,89
2019-03-02T09:31:04.277Z,89
2019-03-02T09:32:06.417Z,89
2019-03-02T09:33:08.532Z,88
2019-03-02T09:34:10.628Z,88
2019-03-02T09:35:17.849Z,89
2019-03-02T09:36:19.960Z,89
2019-03-02T09:37:22.075Z,89
2019-03-02T09:38:24.202Z,89
2019-03-02T09:39:26.324Z,89
2019-03-02T09:40:28.731Z,89
2019-03-02T09:41:30.863Z,89
2019-03-02T09:42:41.880Z,88
2019-03-02T09:43:44.278Z,88
2019-03-02T09:44:46.409Z,88
2019-03-02T09:45:49.902Z,88
2019-03-02T09:46:52.031Z,88
2019-03-02T09:47:54.858Z,88
2019-03-02T09:49:02.595Z,88
2019-03-02T09:50:04.713Z,88
2019-03-02T09:51:06.838Z,87
2019-03-02T09:52:09.242Z,87
2019-03-02T09:53:11.353Z,87
2019-03-02T09:54:13.509Z,88
2019-03-02T09:55:21.910Z,87
2019-03-02T09:56:24.078Z,87
2019-03-02T09:57:26.187Z,87
2019-03-02T09:58:30.650Z,87
2019-03-02T09:59:32.758Z,86
2019-03-02T10:00:36.931Z,86
2019-03-02T10:01:40.878Z,88
2019-03-02T10:02:42.975Z,87
2019-03-02T10:03:53.127Z,87
2019-03-02T10:04:55.247Z,88
2019-03-02T10:05:57.350Z,87
2019-03-02T10:07:04.064Z,86
2019-03-02T10:08:06.194Z,86
2019-03-02T10:09:11.621Z,86
2019-03-02T10:10:14.132Z,86
2019-03-02T10:11:16.269Z,85
2019-03-02T10:12:18.410Z,85
2019-03-02T10:13:20.532Z,86
2019-03-02T10:14:27.347Z,86
2019-03-02T10:15:29.501Z,86
2019-03-02T10:16:31.619Z,85
2019-03-02T10:17:40.380Z,84
2019-03-02T10:18:49.609Z,84
2019-03-02T10:19:53.006Z,83
2019-03-02T10:20:56.345Z,84
2019-03-02T10:21:58.484Z,83
2019-03-02T10:23:07.404Z,83
2019-03-02T10:24:10.149Z,83
2019-03-02T10:25:18.811Z,83
2019-03-02T10:26:20.942Z,83
2019-03-02T10:27:23.663Z,83
2019-03-02T10:28:25.795Z,83
2019-03-02T10:29:27.941Z,82
2019-03-02T10:30:30.058Z,82
2019-03-02T10:31:32.170Z,83
2019-03-02T10:32:34.326Z,82
2019-03-02T10:33:36.452Z,83
2019-03-02T10:34:43.342Z,82
2019-03-02T10:35:45.458Z,82
2019-03-02T10:36:47.553Z,82
2019-03-02T10:37:49.819Z,81
2019-03-02T10:38:57.438Z,81
2019-03-02T10:39:59.568Z,81
2019-03-02T10:41:02.092Z,82
2019-03-02T10:42:04.231Z,82
2019-03-02T10:43:12.299Z,83
2019-03-02T10:44:17.724Z,83
2019-03-02T10:45:24.518Z,82
2019-03-02T10:46:27.977Z,82
2019-03-02T10:47:30.136Z,82
2019-03-02T10:48:32.670Z,82
2019-03-02T10:49:34.774Z,82
2019-03-02T10:50:36.897Z,81
2019-03-02T10:51:39.212Z,82
2019-03-02T10:52:41.314Z,83
2019-03-02T10:53:43.509Z,81
2019-03-02T10:54:45.623Z,81
2019-03-02T10:55:49.848Z,81
2019-03-02T10:56:52.013Z,81
2019-03-02T10:57:54.159Z,80
2019-03-02T10:58:56.937Z,81
2019-03-02T10:59:59.048Z,80
2019-03-02T11:01:09.045Z,81
2019-03-02T11:02:11.149Z,81
2019-03-02T11:03:13.334Z,81
2019-03-02T11:04:15.458Z,81
2019-03-02T11:05:22.064Z,80
2019-03-02T11:06:24.164Z,80
2019-03-02T11:07:26.290Z,80
2019-03-02T11:08:28.735Z,80
2019-03-02T11:09:32.948Z,80
2019-03-02T11:10:41.503Z,82
2019-03-02T11:11:43.670Z,81
2019-03-02T11:12:45.794Z,81
2019-03-02T11:13:47.953Z,81
2019-03-02T11:14:53.764Z,81
2019-03-02T11:15:55.865Z,81
2019-03-02T11:16:58.014Z,80
2019-03-02T11:18:00.736Z,80
2019-03-02T11:19:13.574Z,80
2019-03-02T11:20:15.983Z,80
2019-03-02T11:21:18.090Z,81
2019-03-02T11:22:20.800Z,80
2019-03-02T11:23:24.072Z,80
2019-03-02T11:24:26.574Z,80
2019-03-02T11:25:28.694Z,80
2019-03-02T11:26:31.202Z,80
2019-03-02T11:27:33.348Z,81
2019-03-02T11:28:35.449Z,79
2019-03-02T11:29:37.851Z,79
2019-03-02T11:30:40.271Z,79
2019-03-02T11:31:46.548Z,79
2019-03-02T11:32:48.671Z,79
2019-03-02T11:33:50.789Z,78
2019-03-02T11:34:52.923Z,78
2019-03-02T11:35:55.453Z,78
2019-03-02T11:36:57.577Z,79
2019-03-02T11:38:03.765Z,79
2019-03-02T11:39:05.885Z,78
2019-03-02T11:40:08.313Z,78
2019-03-02T11:41:11.530Z,78
2019-03-02T11:42:15.635Z,78
2019-03-02T11:43:18.117Z,77
2019-03-02T11:44:20.256Z,77
2019-03-02T11:45:22.371Z,78
2019-03-02T11:46:24.490Z,77
2019-03-02T11:47:26.613Z,77
2019-03-02T11:48:28.734Z,77
2019-03-02T11:49:39.965Z,76
2019-03-02T11:50:42.089Z,75
2019-03-02T11:51:44.584Z,76
2019-03-02T11:52:47.088Z,75
2019-03-02T11:53:53.612Z,74
2019-03-02T11:54:55.726Z,74
2019-03-02T11:55:57.832Z,74
2019-03-02T11:56:59.969Z,74
2019-03-02T11:58:02.387Z,75
2019-03-02T11:59:11.044Z,75
2019-03-02T12:00:13.448Z,75
2019-03-02T12:01:15.558Z,74
2019-03-02T12:02:25.296Z,74
2019-03-02T12:03:27.736Z,73
2019-03-02T12:04:29.875Z,73
2019-03-02T12:05:31.994Z,73
2019-03-02T12:06:34.134Z,74
2019-03-02T12:07:47.126Z,74
2019-03-02T12:08:49.260Z,74
2019-03-02T12:09:51.363Z,74
2019-03-02T12:10:53.505Z,73
2019-03-02T12:11:55.636Z,74
2019-03-02T12:12:57.762Z,72
2019-03-02T12:13:59.862Z,73
2019-03-02T12:15:02.382Z,72
2019-03-02T12:16:04.504Z,73
2019-03-02T12:17:06.983Z,73
2019-03-02T12:18:09.156Z,73
2019-03-02T12:19:21.035Z,73
2019-03-02T12:20:23.146Z,74
2019-03-02T12:21:25.283Z,73
2019-03-02T12:22:36.101Z,73
2019-03-02T12:23:39.577Z,73
2019-03-02T12:24:41.715Z,73
2019-03-02T12:25:43.824Z,73
2019-03-02T12:26:48.029Z,73
2019-03-02T12:27:50.170Z,73
2019-03-02T12:28:52.331Z,74
2019-03-02T12:29:54.443Z,74
2019-03-02T12:30:56.694Z,73
2019-03-02T12:31:58.812Z,74
2019-03-02T12:33:01.325Z,74
2019-03-02T12:34:04.042Z,74
2019-03-02T12:35:06.155Z,73
2019-03-02T12:36:08.291Z,74
2019-03-02T12:37:10.406Z,74
2019-03-02T12:38:13.963Z,74
2019-03-02T12:39:16.070Z,74
2019-03-02T12:40:21.832Z,74
2019-03-02T12:41:23.943Z,74
2019-03-02T12:42:32.326Z,74
2019-03-02T12:43:34.826Z,74
2019-03-02T12:44:37.236Z,74
2019-03-02T12:45:39.354Z,73
2019-03-02T12:46:41.480Z,73
2019-03-02T12:47:43.586Z,73
2019-03-02T12:48:45.718Z,73
2019-03-02T12:49:48.782Z,73
2019-03-02T12:50:50.925Z,73
2019-03-02T12:51:53.056Z,73
2019-03-02T12:52:55.168Z,73
2019-03-02T12:55:01.771Z,74
2019-03-02T12:56:03.882Z,72
2019-03-02T12:57:10.331Z,72
2019-03-02T12:58:12.491Z,73
2019-03-02T12:59:14.605Z,72
2019-03-02T13:00:16.733Z,72
2019-03-02T13:01:18.849Z,72
2019-03-02T13:02:20.964Z,71
2019-03-02T13:03:23.259Z,71
2019-03-02T13:04:29.065Z,72
2019-03-02T13:05:31.165Z,73
2019-03-02T13:06:38.404Z,71
2019-03-02T13:07:40.917Z,71
2019-03-02T13:08:43.038Z,71
2019-03-02T13:09:45.174Z,70
2019-03-02T13:10:55.172Z,70
2019-03-02T13:11:57.293Z,70
2019-03-02T13:12:59.423Z,71
2019-03-02T13:14:01.843Z,70
2019-03-02T13:15:10.932Z,70
2019-03-02T13:16:13.062Z,70
2019-03-02T13:17:15.192Z,70
2019-03-02T13:18:17.293Z,70
2019-03-02T13:19:28.134Z,69
2019-03-02T13:20:30.749Z,70
2019-03-02T13:21:32.890Z,69
2019-03-02T13:22:34.989Z,70
2019-03-02T13:23:43.959Z,69
2019-03-02T13:24:46.072Z,69
2019-03-02T13:25:48.184Z,69
2019-03-02T13:26:50.701Z,69
2019-03-02T13:27:52.813Z,69
2019-03-02T13:28:58.673Z,68
2019-03-02T13:30:00.922Z,68
2019-03-02T13:31:09.622Z,68
2019-03-02T13:32:15.810Z,68
2019-03-02T13:33:23.267Z,68
2019-03-02T13:34:25.382Z,68
2019-03-02T13:35:27.544Z,68
2019-03-02T13:36:29.959Z,69
2019-03-02T13:37:32.083Z,69
2019-03-02T13:38:35.294Z,68
2019-03-02T13:39:37.823Z,67
2019-03-02T13:40:39.937Z,68
2019-03-02T13:41:48.733Z,68
2019-03-02T13:42:52.847Z,68
2019-03-02T13:43:54.945Z,68
2019-03-02T13:44:57.364Z,68
2019-03-02T13:46:02.669Z,68
2019-03-02T13:47:12.017Z,68
2019-03-02T13:48:14.116Z,68
2019-03-02T13:49:16.242Z,68
2019-03-02T13:50:21.198Z,68
2019-03-02T13:51:31.760Z,68
2019-03-02T13:52:33.897Z,68
2019-03-02T13:53:36.021Z,68
2019-03-02T13:54:39.347Z,68
2019-03-02T13:55:41.459Z,68
2019-03-02T13:56:43.939Z,68
2019-03-02T13:57:46.047Z,68
2019-03-02T13:58:56.063Z,68
2019-03-02T13:59:58.182Z,68
2019-03-02T14:01:00.283Z,68
2019-03-02T14:02:04.314Z,68
2019-03-02T14:03:06.723Z,68
2019-03-02T14:04:08.853Z,68
2019-03-02T14:05:10.968Z,67
2019-03-02T14:06:20.189Z,67
2019-03-02T14:07:22.313Z,67
2019-03-02T14:08:24.421Z,67
2019-03-02T14:09:26.537Z,67
2019-03-02T14:10:28.669Z,67
2019-03-02T14:11:41.039Z,67
2019-03-02T14:12:43.147Z,67
2019-03-02T14:13:45.280Z,67
2019-03-02T14:14:47.436Z,66
2019-03-02T14:15:49.549Z,66
2019-03-02T14:16:56.572Z,66
2019-03-02T14:17:58.681Z,65
2019-03-02T14:19:07.139Z,66
2019-03-02T14:20:09.255Z,66
2019-03-02T14:21:11.411Z,65
2019-03-02T14:22:16.519Z,65
2019-03-02T14:23:18.639Z,66
2019-03-02T14:24:20.754Z,65
2019-03-02T14:25:24.757Z,66
2019-03-02T14:26:26.901Z,65
2019-03-02T14:27:29.301Z,66
2019-03-02T14:28:37.059Z,66
2019-03-02T14:29:39.175Z,66
2019-03-02T14:30:52.343Z,66
2019-03-02T14:31:54.702Z,66
2019-03-02T14:32:56.843Z,66
2019-03-02T14:33:58.967Z,66
2019-03-02T14:35:12.297Z,66
2019-03-02T14:36:18.281Z,66
2019-03-02T14:37:20.417Z,65
2019-03-02T14:38:25.600Z,65
2019-03-02T14:39:27.727Z,65
2019-03-02T14:40:30.150Z,65
2019-03-02T14:41:32.267Z,65
2019-03-02T14:42:34.372Z,65
2019-03-02T14:43:36.867Z,65
2019-03-02T14:44:39.306Z,65
2019-03-02T14:45:48.138Z,65
2019-03-02T14:46:50.239Z,64
2019-03-02T14:47:52.368Z,65
2019-03-02T14:48:54.473Z,65
2019-03-02T14:49:56.599Z,64
2019-03-02T14:50:59.129Z,64
2019-03-02T14:52:01.250Z,64
2019-03-02T14:53:11.471Z,64
2019-03-02T14:54:17.145Z,65